Fruitvale, Canada
Current Conditions -  °F | °C
As of 10:15 AM on Thursday 25 Dec 2014 (Local Time) from K65S Reporting Station
Overcast Overcast  
Wind Chill: 28°   Ceiling: 1800
Heat Index: 28°   Visibility: 10mi
Dew Point: 27°   Wind: 0mph
Humidity: 93%   Direction: NA
Pressure: 30.02"   Gusts: NA
Location:  49.12°N, 117.55°W
Report Text: K65S 251815Z AUTO 00000KT 10SM OVC018 M02/M03 A3002 RMK AO2
Loading
Personal Weather Stations






























Interactive Weather Map New forecast layout! Learn more

10-Day Weather Forecast

Advertisements
Track Severe Weather on mobile